sensor_id;sensor_type;location;lat;lon;timestamp;P1;durP1;ratioP1;P2;durP2;ratioP2
46054;SDS011;31788;6.954;-71.872;2023-02-26T00:01:14;52.60;;;23.25;;
46054;SDS011;31788;6.954;-71.872;2023-02-26T00:03:42;53.65;;;24.92;;
46054;SDS011;31788;6.954;-71.872;2023-02-26T00:06:09;57.05;;;32.08;;
46054;SDS011;31788;6.954;-71.872;2023-02-26T00:08:36;76.03;;;41.53;;
46054;SDS011;31788;6.954;-71.872;2023-02-26T00:11:05;60.58;;;35.15;;
46054;SDS011;31788;6.954;-71.872;2023-02-26T00:13:32;52.38;;;30.65;;
46054;SDS011;31788;6.954;-71.872;2023-02-26T00:16:01;48.55;;;29.50;;
46054;SDS011;31788;6.954;-71.872;2023-02-26T00:18:30;49.72;;;28.25;;
46054;SDS011;31788;6.954;-71.872;2023-02-26T00:20:57;47.70;;;27.52;;
46054;SDS011;31788;6.954;-71.872;2023-02-26T00:23:24;36.85;;;24.77;;
46054;SDS011;31788;6.954;-71.872;2023-02-26T00:25:51;43.42;;;24.92;;
46054;SDS011;31788;6.954;-71.872;2023-02-26T00:28:18;38.97;;;23.85;;
46054;SDS011;31788;6.954;-71.872;2023-02-26T00:30:45;55.35;;;23.85;;
46054;SDS011;31788;6.954;-71.872;2023-02-26T00:33:12;37.67;;;20.83;;
46054;SDS011;31788;6.954;-71.872;2023-02-26T00:35:39;34.47;;;18.98;;
46054;SDS011;31788;6.954;-71.872;2023-02-26T00:38:07;27.00;;;17.33;;
46054;SDS011;31788;6.954;-71.872;2023-02-26T00:40:43;26.60;;;15.27;;
46054;SDS011;31788;6.954;-71.872;2023-02-26T00:43:15;24.90;;;15.00;;
46054;SDS011;31788;6.954;-71.872;2023-02-26T00:51:01;20.60;;;12.10;;
46054;SDS011;31788;6.954;-71.872;2023-02-26T00:56:14;22.15;;;11.75;;
46054;SDS011;31788;6.954;-71.872;2023-02-26T00:58:41;22.15;;;12.10;;
46054;SDS011;31788;6.954;-71.872;2023-02-26T01:01:07;17.75;;;10.05;;
46054;SDS011;31788;6.954;-71.872;2023-02-26T01:03:34;14.57;;;10.10;;
46054;SDS011;31788;6.954;-71.872;2023-02-26T01:06:02;14.68;;;9.73;;
46054;SDS011;31788;6.954;-71.872;2023-02-26T01:08:31;15.70;;;10.20;;
46054;SDS011;31788;6.954;-71.872;2023-02-26T01:11:05;18.63;;;10.30;;
46054;SDS011;31788;6.954;-71.872;2023-02-26T01:13:32;19.77;;;10.90;;
46054;SDS011;31788;6.954;-71.872;2023-02-26T01:16:01;17.52;;;11.00;;
46054;SDS011;31788;6.954;-71.872;2023-02-26T01:18:37;17.80;;;10.50;;
46054;SDS011;31788;6.954;-71.872;2023-02-26T01:21:09;16.25;;;10.27;;
46054;SDS011;31788;6.954;-71.872;2023-02-26T01:23:42;17.13;;;10.32;;
46054;SDS011;31788;6.954;-71.872;2023-02-26T01:26:19;22.27;;;10.95;;
46054;SDS011;31788;6.954;-71.872;2023-02-26T01:28:54;19.42;;;10.30;;
46054;SDS011;31788;6.954;-71.872;2023-02-26T01:37:52;17.63;;;10.18;;
46054;SDS011;31788;6.954;-71.872;2023-02-26T01:40:13;17.80;;;9.60;;
46054;SDS011;31788;6.954;-71.872;2023-02-26T01:42:52;18.08;;;9.75;;
46054;SDS011;31788;6.954;-71.872;2023-02-26T01:45:32;19.02;;;10.35;;
46054;SDS011;31788;6.954;-71.872;2023-02-26T01:48:48;20.80;;;10.23;;
46054;SDS011;31788;6.954;-71.872;2023-02-26T01:51:09;19.50;;;10.18;;
46054;SDS011;31788;6.954;-71.872;2023-02-26T01:53:35;16.45;;;9.57;;
46054;SDS011;31788;6.954;-71.872;2023-02-26T01:56:03;14.35;;;9.90;;
46054;SDS011;31788;6.954;-71.872;2023-02-26T01:58:36;13.80;;;9.97;;
46054;SDS011;31788;6.954;-71.872;2023-02-26T02:01:03;15.93;;;9.80;;
46054;SDS011;31788;6.954;-71.872;2023-02-26T02:03:33;18.33;;;10.40;;
46054;SDS011;31788;6.954;-71.872;2023-02-26T02:06:25;17.37;;;10.90;;
46054;SDS011;31788;6.954;-71.872;2023-02-26T02:08:51;12.43;;;9.55;;
46054;SDS011;31788;6.954;-71.872;2023-02-26T02:11:18;15.00;;;10.70;;
46054;SDS011;31788;6.954;-71.872;2023-02-26T02:22:14;14.35;;;9.45;;
46054;SDS011;31788;6.954;-71.872;2023-02-26T02:31:30;14.37;;;9.63;;
46054;SDS011;31788;6.954;-71.872;2023-02-26T02:34:18;12.30;;;9.40;;
46054;SDS011;31788;6.954;-71.872;2023-02-26T02:36:52;15.27;;;9.55;;
46054;SDS011;31788;6.954;-71.872;2023-02-26T02:39:48;11.57;;;9.02;;
46054;SDS011;31788;6.954;-71.872;2023-02-26T02:42:27;12.98;;;8.88;;
46054;SDS011;31788;6.954;-71.872;2023-02-26T02:45:02;11.93;;;9.00;;
46054;SDS011;31788;6.954;-71.872;2023-02-26T02:47:34;12.27;;;9.25;;
46054;SDS011;31788;6.954;-71.872;2023-02-26T02:50:06;11.60;;;8.50;;
46054;SDS011;31788;6.954;-71.872;2023-02-26T02:52:53;13.02;;;8.60;;
46054;SDS011;31788;6.954;-71.872;2023-02-26T02:55:33;12.60;;;8.98;;
46054;SDS011;31788;6.954;-71.872;2023-02-26T02:58:11;16.00;;;8.45;;
46054;SDS011;31788;6.954;-71.872;2023-02-26T03:00:43;12.90;;;8.60;;
46054;SDS011;31788;6.954;-71.872;2023-02-26T03:03:20;12.25;;;8.52;;
46054;SDS011;31788;6.954;-71.872;2023-02-26T03:06:07;12.38;;;8.95;;
46054;SDS011;31788;6.954;-71.872;2023-02-26T03:08:35;10.88;;;7.78;;
46054;SDS011;31788;6.954;-71.872;2023-02-26T03:11:06;11.10;;;8.00;;
46054;SDS011;31788;6.954;-71.872;2023-02-26T03:13:33;10.70;;;8.53;;
46054;SDS011;31788;6.954;-71.872;2023-02-26T03:16:28;10.50;;;8.18;;
46054;SDS011;31788;6.954;-71.872;2023-02-26T03:19:27;12.32;;;8.38;;
46054;SDS011;31788;6.954;-71.872;2023-02-26T03:24:54;12.35;;;8.23;;
46054;SDS011;31788;6.954;-71.872;2023-02-26T03:27:30;11.52;;;8.32;;
46054;SDS011;31788;6.954;-71.872;2023-02-26T03:30:04;11.88;;;8.20;;
46054;SDS011;31788;6.954;-71.872;2023-02-26T03:32:42;11.05;;;7.50;;
46054;SDS011;31788;6.954;-71.872;2023-02-26T03:35:20;13.80;;;8.18;;
46054;SDS011;31788;6.954;-71.872;2023-02-26T03:37:55;10.93;;;8.15;;
46054;SDS011;31788;6.954;-71.872;2023-02-26T03:40:36;11.73;;;7.97;;
46054;SDS011;31788;6.954;-71.872;2023-02-26T03:43:15;12.93;;;8.20;;
46054;SDS011;31788;6.954;-71.872;2023-02-26T03:46:02;11.38;;;8.55;;
46054;SDS011;31788;6.954;-71.872;2023-02-26T03:48:32;15.48;;;8.52;;
46054;SDS011;31788;6.954;-71.872;2023-02-26T03:51:05;14.52;;;8.25;;
46054;SDS011;31788;6.954;-71.872;2023-02-26T03:53:42;13.90;;;8.52;;
46054;SDS011;31788;6.954;-71.872;2023-02-26T03:56:27;15.80;;;7.90;;
46054;SDS011;31788;6.954;-71.872;2023-02-26T03:59:11;14.00;;;8.43;;
46054;SDS011;31788;6.954;-71.872;2023-02-26T04:01:43;11.40;;;7.85;;
46054;SDS011;31788;6.954;-71.872;2023-02-26T04:07:09;10.85;;;8.20;;
46054;SDS011;31788;6.954;-71.872;2023-02-26T04:09:39;9.43;;;7.85;;
46054;SDS011;31788;6.954;-71.872;2023-02-26T04:12:08;11.02;;;8.05;;
46054;SDS011;31788;6.954;-71.872;2023-02-26T04:14:35;10.65;;;8.00;;
46054;SDS011;31788;6.954;-71.872;2023-02-26T04:17:02;10.90;;;7.67;;
46054;SDS011;31788;6.954;-71.872;2023-02-26T04:19:30;10.23;;;7.90;;
46054;SDS011;31788;6.954;-71.872;2023-02-26T04:21:57;11.33;;;8.50;;
46054;SDS011;31788;6.954;-71.872;2023-02-26T04:24:23;10.25;;;8.13;;
46054;SDS011;31788;6.954;-71.872;2023-02-26T04:26:50;12.57;;;8.20;;
46054;SDS011;31788;6.954;-71.872;2023-02-26T04:29:16;12.00;;;8.10;;
46054;SDS011;31788;6.954;-71.872;2023-02-26T04:31:43;10.55;;;8.00;;
46054;SDS011;31788;6.954;-71.872;2023-02-26T04:34:10;10.35;;;8.10;;
46054;SDS011;31788;6.954;-71.872;2023-02-26T04:36:36;10.18;;;8.00;;
46054;SDS011;31788;6.954;-71.872;2023-02-26T04:39:03;12.20;;;8.00;;
46054;SDS011;31788;6.954;-71.872;2023-02-26T04:41:30;9.88;;;8.07;;
46054;SDS011;31788;6.954;-71.872;2023-02-26T04:43:57;11.20;;;7.95;;
46054;SDS011;31788;6.954;-71.872;2023-02-26T04:46:23;9.93;;;8.03;;
46054;SDS011;31788;6.954;-71.872;2023-02-26T04:48:50;12.00;;;8.30;;
46054;SDS011;31788;6.954;-71.872;2023-02-26T04:51:16;10.68;;;7.95;;
46054;SDS011;31788;6.954;-71.872;2023-02-26T04:53:43;13.80;;;8.45;;
46054;SDS011;31788;6.954;-71.872;2023-02-26T04:56:10;12.70;;;8.80;;
46054;SDS011;31788;6.954;-71.872;2023-02-26T04:58:36;11.40;;;8.20;;
46054;SDS011;31788;6.954;-71.872;2023-02-26T05:01:03;11.68;;;8.52;;
46054;SDS011;31788;6.954;-71.872;2023-02-26T05:03:31;11.17;;;8.10;;
46054;SDS011;31788;6.954;-71.872;2023-02-26T05:05:58;13.80;;;8.95;;
46054;SDS011;31788;6.954;-71.872;2023-02-26T05:08:24;11.75;;;8.80;;
46054;SDS011;31788;6.954;-71.872;2023-02-26T05:10:51;14.43;;;8.77;;
46054;SDS011;31788;6.954;-71.872;2023-02-26T05:13:18;13.50;;;9.35;;
46054;SDS011;31788;6.954;-71.872;2023-02-26T05:15:45;12.13;;;9.07;;
46054;SDS011;31788;6.954;-71.872;2023-02-26T05:18:14;13.43;;;9.10;;
46054;SDS011;31788;6.954;-71.872;2023-02-26T05:20:41;13.32;;;9.27;;
46054;SDS011;31788;6.954;-71.872;2023-02-26T05:23:07;14.43;;;9.43;;
46054;SDS011;31788;6.954;-71.872;2023-02-26T05:25:34;12.70;;;9.07;;
46054;SDS011;31788;6.954;-71.872;2023-02-26T05:28:00;14.57;;;8.97;;
46054;SDS011;31788;6.954;-71.872;2023-02-26T05:30:27;13.40;;;8.30;;
46054;SDS011;31788;6.954;-71.872;2023-02-26T05:32:53;16.15;;;9.80;;
46054;SDS011;31788;6.954;-71.872;2023-02-26T05:35:20;10.63;;;9.00;;
46054;SDS011;31788;6.954;-71.872;2023-02-26T05:37:46;16.00;;;9.80;;
46054;SDS011;31788;6.954;-71.872;2023-02-26T05:40:13;16.95;;;9.93;;
46054;SDS011;31788;6.954;-71.872;2023-02-26T05:42:40;14.27;;;9.60;;
46054;SDS011;31788;6.954;-71.872;2023-02-26T05:45:06;20.30;;;9.73;;
46054;SDS011;31788;6.954;-71.872;2023-02-26T05:47:34;19.40;;;9.32;;
46054;SDS011;31788;6.954;-71.872;2023-02-26T05:50:02;17.08;;;9.00;;
46054;SDS011;31788;6.954;-71.872;2023-02-26T05:52:30;16.43;;;9.50;;
46054;SDS011;31788;6.954;-71.872;2023-02-26T05:54:57;15.77;;;9.73;;
46054;SDS011;31788;6.954;-71.872;2023-02-26T05:57:23;14.97;;;9.17;;
46054;SDS011;31788;6.954;-71.872;2023-02-26T05:59:50;17.00;;;9.80;;
46054;SDS011;31788;6.954;-71.872;2023-02-26T06:02:17;12.65;;;9.25;;
46054;SDS011;31788;6.954;-71.872;2023-02-26T06:04:43;15.80;;;9.45;;
46054;SDS011;31788;6.954;-71.872;2023-02-26T06:07:10;14.48;;;9.82;;
46054;SDS011;31788;6.954;-71.872;2023-02-26T06:09:36;14.43;;;9.80;;
46054;SDS011;31788;6.954;-71.872;2023-02-26T06:12:03;15.90;;;9.90;;
46054;SDS011;31788;6.954;-71.872;2023-02-26T06:14:31;12.50;;;9.20;;
46054;SDS011;31788;6.954;-71.872;2023-02-26T06:16:58;14.45;;;9.43;;
46054;SDS011;31788;6.954;-71.872;2023-02-26T06:19:24;12.68;;;9.63;;
46054;SDS011;31788;6.954;-71.872;2023-02-26T06:21:51;14.48;;;9.43;;
46054;SDS011;31788;6.954;-71.872;2023-02-26T06:24:18;17.30;;;9.82;;
46054;SDS011;31788;6.954;-71.872;2023-02-26T06:26:44;14.27;;;9.60;;
46054;SDS011;31788;6.954;-71.872;2023-02-26T06:29:11;12.63;;;10.10;;
46054;SDS011;31788;6.954;-71.872;2023-02-26T06:31:37;14.13;;;9.85;;
46054;SDS011;31788;6.954;-71.872;2023-02-26T06:34:04;12.85;;;9.95;;
46054;SDS011;31788;6.954;-71.872;2023-02-26T06:36:30;12.38;;;9.57;;
46054;SDS011;31788;6.954;-71.872;2023-02-26T06:38:57;12.10;;;9.73;;
46054;SDS011;31788;6.954;-71.872;2023-02-26T06:41:23;13.13;;;9.73;;
46054;SDS011;31788;6.954;-71.872;2023-02-26T06:43:50;13.07;;;9.97;;
46054;SDS011;31788;6.954;-71.872;2023-02-26T06:46:17;12.25;;;9.40;;
46054;SDS011;31788;6.954;-71.872;2023-02-26T06:48:43;13.30;;;10.40;;
46054;SDS011;31788;6.954;-71.872;2023-02-26T06:51:10;12.17;;;9.70;;
46054;SDS011;31788;6.954;-71.872;2023-02-26T06:53:36;10.50;;;9.40;;
46054;SDS011;31788;6.954;-71.872;2023-02-26T06:56:03;10.48;;;9.30;;
46054;SDS011;31788;6.954;-71.872;2023-02-26T06:58:30;10.10;;;9.00;;
46054;SDS011;31788;6.954;-71.872;2023-02-26T07:00:56;12.02;;;9.82;;
46054;SDS011;31788;6.954;-71.872;2023-02-26T07:03:23;10.15;;;9.15;;
46054;SDS011;31788;6.954;-71.872;2023-02-26T07:05:49;12.52;;;9.80;;
46054;SDS011;31788;6.954;-71.872;2023-02-26T07:08:16;11.85;;;9.73;;
46054;SDS011;31788;6.954;-71.872;2023-02-26T07:10:42;12.32;;;9.57;;
46054;SDS011;31788;6.954;-71.872;2023-02-26T07:13:11;15.10;;;9.90;;
46054;SDS011;31788;6.954;-71.872;2023-02-26T07:15:38;12.13;;;10.00;;
46054;SDS011;31788;6.954;-71.872;2023-02-26T07:18:04;11.52;;;10.20;;
46054;SDS011;31788;6.954;-71.872;2023-02-26T07:20:31;10.53;;;9.43;;
46054;SDS011;31788;6.954;-71.872;2023-02-26T07:22:58;12.67;;;10.23;;
46054;SDS011;31788;6.954;-71.872;2023-02-26T07:25:25;12.70;;;9.95;;
46054;SDS011;31788;6.954;-71.872;2023-02-26T07:27:51;11.93;;;9.67;;
46054;SDS011;31788;6.954;-71.872;2023-02-26T07:30:19;14.23;;;10.50;;
46054;SDS011;31788;6.954;-71.872;2023-02-26T07:32:45;11.30;;;10.10;;
46054;SDS011;31788;6.954;-71.872;2023-02-26T07:35:12;12.45;;;9.63;;
46054;SDS011;31788;6.954;-71.872;2023-02-26T07:37:38;12.25;;;10.32;;
46054;SDS011;31788;6.954;-71.872;2023-02-26T07:40:05;11.13;;;9.93;;
46054;SDS011;31788;6.954;-71.872;2023-02-26T07:42:33;13.15;;;10.23;;
46054;SDS011;31788;6.954;-71.872;2023-02-26T07:44:59;12.38;;;10.00;;
46054;SDS011;31788;6.954;-71.872;2023-02-26T07:47:26;12.63;;;10.60;;
46054;SDS011;31788;6.954;-71.872;2023-02-26T07:49:55;13.40;;;10.18;;
46054;SDS011;31788;6.954;-71.872;2023-02-26T07:52:21;12.35;;;10.63;;
46054;SDS011;31788;6.954;-71.872;2023-02-26T07:54:48;14.90;;;10.40;;
46054;SDS011;31788;6.954;-71.872;2023-02-26T07:57:15;13.68;;;10.63;;
46054;SDS011;31788;6.954;-71.872;2023-02-26T07:59:41;12.63;;;10.33;;
46054;SDS011;31788;6.954;-71.872;2023-02-26T08:02:09;12.63;;;10.50;;
46054;SDS011;31788;6.954;-71.872;2023-02-26T08:04:37;15.23;;;10.68;;
46054;SDS011;31788;6.954;-71.872;2023-02-26T08:07:04;15.68;;;10.82;;
46054;SDS011;31788;6.954;-71.872;2023-02-26T08:09:31;12.90;;;10.70;;
46054;SDS011;31788;6.954;-71.872;2023-02-26T08:11:58;12.38;;;10.68;;
46054;SDS011;31788;6.954;-71.872;2023-02-26T08:14:24;13.57;;;11.15;;
46054;SDS011;31788;6.954;-71.872;2023-02-26T08:16:51;20.77;;;10.88;;
46054;SDS011;31788;6.954;-71.872;2023-02-26T08:19:18;17.05;;;10.98;;
46054;SDS011;31788;6.954;-71.872;2023-02-26T08:21:44;15.25;;;10.75;;
46054;SDS011;31788;6.954;-71.872;2023-02-26T08:24:11;11.85;;;10.13;;
46054;SDS011;31788;6.954;-71.872;2023-02-26T08:26:38;13.82;;;10.50;;
46054;SDS011;31788;6.954;-71.872;2023-02-26T08:29:05;14.60;;;9.98;;
46054;SDS011;31788;6.954;-71.872;2023-02-26T08:31:32;13.00;;;10.15;;
46054;SDS011;31788;6.954;-71.872;2023-02-26T08:33:59;14.30;;;9.90;;
46054;SDS011;31788;6.954;-71.872;2023-02-26T08:36:26;13.43;;;11.13;;
46054;SDS011;31788;6.954;-71.872;2023-02-26T08:38:53;11.15;;;9.85;;
46054;SDS011;31788;6.954;-71.872;2023-02-26T08:41:19;11.68;;;9.73;;
46054;SDS011;31788;6.954;-71.872;2023-02-26T08:43:47;14.18;;;10.20;;
46054;SDS011;31788;6.954;-71.872;2023-02-26T08:46:13;12.38;;;9.73;;
46054;SDS011;31788;6.954;-71.872;2023-02-26T08:48:40;11.27;;;9.82;;
46054;SDS011;31788;6.954;-71.872;2023-02-26T08:51:06;12.23;;;9.57;;
46054;SDS011;31788;6.954;-71.872;2023-02-26T08:53:33;10.88;;;9.15;;
46054;SDS011;31788;6.954;-71.872;2023-02-26T08:56:00;11.07;;;9.30;;
46054;SDS011;31788;6.954;-71.872;2023-02-26T08:58:26;11.57;;;9.38;;
46054;SDS011;31788;6.954;-71.872;2023-02-26T09:00:53;10.93;;;9.00;;
46054;SDS011;31788;6.954;-71.872;2023-02-26T09:03:19;13.38;;;9.00;;
46054;SDS011;31788;6.954;-71.872;2023-02-26T09:05:46;11.15;;;9.25;;
46054;SDS011;31788;6.954;-71.872;2023-02-26T09:08:13;10.63;;;8.57;;
46054;SDS011;31788;6.954;-71.872;2023-02-26T09:10:40;11.60;;;9.02;;
46054;SDS011;31788;6.954;-71.872;2023-02-26T09:13:07;10.13;;;8.70;;
46054;SDS011;31788;6.954;-71.872;2023-02-26T09:15:33;10.30;;;9.00;;
46054;SDS011;31788;6.954;-71.872;2023-02-26T09:18:00;9.90;;;8.70;;
46054;SDS011;31788;6.954;-71.872;2023-02-26T09:20:27;10.73;;;8.90;;
46054;SDS011;31788;6.954;-71.872;2023-02-26T09:22:53;11.10;;;8.63;;
46054;SDS011;31788;6.954;-71.872;2023-02-26T09:25:20;11.65;;;9.02;;
46054;SDS011;31788;6.954;-71.872;2023-02-26T09:27:48;10.07;;;8.98;;
46054;SDS011;31788;6.954;-71.872;2023-02-26T09:30:15;11.88;;;9.10;;
46054;SDS011;31788;6.954;-71.872;2023-02-26T09:32:42;15.07;;;9.50;;
46054;SDS011;31788;6.954;-71.872;2023-02-26T09:35:08;12.32;;;9.50;;
46054;SDS011;31788;6.954;-71.872;2023-02-26T09:37:36;16.58;;;9.90;;
46054;SDS011;31788;6.954;-71.872;2023-02-26T09:40:02;11.13;;;9.60;;
46054;SDS011;31788;6.954;-71.872;2023-02-26T09:45:34;11.02;;;9.50;;
46054;SDS011;31788;6.954;-71.872;2023-02-26T09:48:03;15.00;;;10.70;;
46054;SDS011;31788;6.954;-71.872;2023-02-26T09:50:39;13.05;;;10.60;;
46054;SDS011;31788;6.954;-71.872;2023-02-26T09:53:18;12.70;;;9.37;;
46054;SDS011;31788;6.954;-71.872;2023-02-26T09:56:03;15.63;;;9.65;;
46054;SDS011;31788;6.954;-71.872;2023-02-26T09:58:39;12.50;;;9.25;;
46054;SDS011;31788;6.954;-71.872;2023-02-26T10:03:53;12.35;;;9.15;;
46054;SDS011;31788;6.954;-71.872;2023-02-26T10:11:59;11.80;;;8.93;;
46054;SDS011;31788;6.954;-71.872;2023-02-26T10:17:22;11.23;;;9.30;;
46054;SDS011;31788;6.954;-71.872;2023-02-26T10:19:52;12.77;;;9.57;;
46054;SDS011;31788;6.954;-71.872;2023-02-26T10:25:35;10.90;;;9.27;;
46054;SDS011;31788;6.954;-71.872;2023-02-26T10:30:43;11.38;;;9.10;;
46054;SDS011;31788;6.954;-71.872;2023-02-26T10:38:49;11.37;;;8.80;;
46054;SDS011;31788;6.954;-71.872;2023-02-26T10:41:24;12.38;;;8.57;;
46054;SDS011;31788;6.954;-71.872;2023-02-26T10:44:12;10.20;;;8.98;;
46054;SDS011;31788;6.954;-71.872;2023-02-26T10:52:00;10.50;;;8.93;;
46054;SDS011;31788;6.954;-71.872;2023-02-26T10:57:27;12.60;;;9.40;;
46054;SDS011;31788;6.954;-71.872;2023-02-26T10:59:58;9.75;;;8.75;;
46054;SDS011;31788;6.954;-71.872;2023-02-26T11:02:38;10.32;;;9.20;;
46054;SDS011;31788;6.954;-71.872;2023-02-26T11:07:46;14.02;;;9.95;;
46054;SDS011;31788;6.954;-71.872;2023-02-26T11:10:17;11.73;;;10.00;;
46054;SDS011;31788;6.954;-71.872;2023-02-26T11:12:45;13.37;;;10.20;;
46054;SDS011;31788;6.954;-71.872;2023-02-26T11:15:13;12.48;;;10.50;;
46054;SDS011;31788;6.954;-71.872;2023-02-26T11:17:44;12.88;;;10.80;;
46054;SDS011;31788;6.954;-71.872;2023-02-26T11:23:13;16.98;;;10.98;;
46054;SDS011;31788;6.954;-71.872;2023-02-26T11:25:44;17.35;;;11.38;;
46054;SDS011;31788;6.954;-71.872;2023-02-26T11:28:18;16.15;;;11.20;;
46054;SDS011;31788;6.954;-71.872;2023-02-26T11:30:45;16.48;;;11.60;;
46054;SDS011;31788;6.954;-71.872;2023-02-26T11:33:33;15.27;;;10.68;;
46054;SDS011;31788;6.954;-71.872;2023-02-26T11:36:05;17.08;;;11.43;;
46054;SDS011;31788;6.954;-71.872;2023-02-26T11:38:38;15.07;;;11.98;;
46054;SDS011;31788;6.954;-71.872;2023-02-26T11:41:05;17.53;;;11.63;;
46054;SDS011;31788;6.954;-71.872;2023-02-26T11:43:36;16.63;;;11.07;;
46054;SDS011;31788;6.954;-71.872;2023-02-26T11:46:06;14.47;;;10.87;;
46054;SDS011;31788;6.954;-71.872;2023-02-26T11:48:44;17.65;;;11.38;;
46054;SDS011;31788;6.954;-71.872;2023-02-26T11:51:14;14.02;;;11.00;;
46054;SDS011;31788;6.954;-71.872;2023-02-26T11:53:49;16.27;;;11.48;;
46054;SDS011;31788;6.954;-71.872;2023-02-26T11:59:23;19.80;;;13.07;;
46054;SDS011;31788;6.954;-71.872;2023-02-26T12:01:51;18.40;;;12.18;;
46054;SDS011;31788;6.954;-71.872;2023-02-26T12:04:22;14.68;;;12.10;;
46054;SDS011;31788;6.954;-71.872;2023-02-26T12:06:51;17.75;;;12.27;;
46054;SDS011;31788;6.954;-71.872;2023-02-26T12:09:19;14.20;;;11.50;;
46054;SDS011;31788;6.954;-71.872;2023-02-26T12:20:06;18.55;;;12.77;;
46054;SDS011;31788;6.954;-71.872;2023-02-26T12:33:39;18.13;;;13.38;;
46054;SDS011;31788;6.954;-71.872;2023-02-26T13:01:11;27.00;;;15.40;;
46054;SDS011;31788;6.954;-71.872;2023-02-26T13:03:46;25.23;;;14.68;;
46054;SDS011;31788;6.954;-71.872;2023-02-26T13:09:22;37.00;;;16.33;;
46054;SDS011;31788;6.954;-71.872;2023-02-26T13:14:44;27.48;;;15.18;;
46054;SDS011;31788;6.954;-71.872;2023-02-26T13:20:16;23.95;;;15.65;;
46054;SDS011;31788;6.954;-71.872;2023-02-26T13:22:49;24.00;;;15.82;;
46054;SDS011;31788;6.954;-71.872;2023-02-26T13:25:42;24.08;;;15.60;;
46054;SDS011;31788;6.954;-71.872;2023-02-26T13:34:14;20.48;;;14.10;;
46054;SDS011;31788;6.954;-71.872;2023-02-26T13:36:58;19.58;;;14.70;;
46054;SDS011;31788;6.954;-71.872;2023-02-26T13:39:48;22.33;;;14.57;;
46054;SDS011;31788;6.954;-71.872;2023-02-26T13:50:18;22.25;;;14.15;;
46054;SDS011;31788;6.954;-71.872;2023-02-26T13:52:53;21.30;;;14.88;;
46054;SDS011;31788;6.954;-71.872;2023-02-26T13:55:52;37.13;;;15.23;;
46054;SDS011;31788;6.954;-71.872;2023-02-26T13:58:34;34.58;;;15.57;;
46054;SDS011;31788;6.954;-71.872;2023-02-26T14:03:49;31.67;;;14.90;;
46054;SDS011;31788;6.954;-71.872;2023-02-26T14:06:36;25.88;;;15.15;;
46054;SDS011;31788;6.954;-71.872;2023-02-26T14:09:27;25.83;;;14.98;;
46054;SDS011;31788;6.954;-71.872;2023-02-26T14:14:34;25.67;;;15.75;;
46054;SDS011;31788;6.954;-71.872;2023-02-26T14:22:20;24.40;;;15.57;;
46054;SDS011;31788;6.954;-71.872;2023-02-26T14:27:42;29.20;;;15.85;;
46054;SDS011;31788;6.954;-71.872;2023-02-26T14:30:20;24.23;;;15.35;;
46054;SDS011;31788;6.954;-71.872;2023-02-26T14:38:56;21.77;;;14.45;;
46054;SDS011;31788;6.954;-71.872;2023-02-26T14:41:04;24.25;;;15.30;;
46054;SDS011;31788;6.954;-71.872;2023-02-26T14:43:53;21.40;;;15.60;;
46054;SDS011;31788;6.954;-71.872;2023-02-26T14:46:27;33.75;;;17.05;;
46054;SDS011;31788;6.954;-71.872;2023-02-26T14:48:55;22.88;;;15.85;;
46054;SDS011;31788;6.954;-71.872;2023-02-26T14:51:25;21.93;;;15.27;;
46054;SDS011;31788;6.954;-71.872;2023-02-26T15:05:36;25.30;;;16.13;;
46054;SDS011;31788;6.954;-71.872;2023-02-26T15:11:23;20.73;;;15.60;;
46054;SDS011;31788;6.954;-71.872;2023-02-26T15:16:44;23.42;;;15.27;;
46054;SDS011;31788;6.954;-71.872;2023-02-26T15:22:37;19.80;;;14.63;;
46054;SDS011;31788;6.954;-71.872;2023-02-26T15:25:29;21.20;;;15.15;;
46054;SDS011;31788;6.954;-71.872;2023-02-26T15:28:01;21.50;;;15.27;;
46054;SDS011;31788;6.954;-71.872;2023-02-26T15:30:31;24.35;;;15.68;;
46054;SDS011;31788;6.954;-71.872;2023-02-26T15:32:59;22.27;;;15.97;;
46054;SDS011;31788;6.954;-71.872;2023-02-26T15:35:30;22.00;;;16.38;;
46054;SDS011;31788;6.954;-71.872;2023-02-26T15:38:00;19.13;;;15.32;;
46054;SDS011;31788;6.954;-71.872;2023-02-26T15:40:32;22.75;;;15.13;;
46054;SDS011;31788;6.954;-71.872;2023-02-26T15:43:00;19.90;;;15.05;;
46054;SDS011;31788;6.954;-71.872;2023-02-26T15:45:31;19.98;;;14.63;;
46054;SDS011;31788;6.954;-71.872;2023-02-26T15:48:05;20.65;;;14.30;;
46054;SDS011;31788;6.954;-71.872;2023-02-26T15:50:38;18.10;;;13.70;;
46054;SDS011;31788;6.954;-71.872;2023-02-26T15:53:07;17.98;;;13.23;;
46054;SDS011;31788;6.954;-71.872;2023-02-26T15:55:44;17.15;;;13.65;;
46054;SDS011;31788;6.954;-71.872;2023-02-26T15:58:29;17.42;;;13.88;;
46054;SDS011;31788;6.954;-71.872;2023-02-26T16:00:58;18.48;;;14.13;;
46054;SDS011;31788;6.954;-71.872;2023-02-26T16:03:30;17.73;;;13.95;;
46054;SDS011;31788;6.954;-71.872;2023-02-26T16:05:58;19.70;;;14.35;;
46054;SDS011;31788;6.954;-71.872;2023-02-26T16:08:25;19.63;;;13.70;;
46054;SDS011;31788;6.954;-71.872;2023-02-26T16:10:52;19.83;;;13.60;;
46054;SDS011;31788;6.954;-71.872;2023-02-26T16:13:31;17.83;;;14.10;;
46054;SDS011;31788;6.954;-71.872;2023-02-26T16:16:08;17.25;;;13.32;;
46054;SDS011;31788;6.954;-71.872;2023-02-26T16:18:57;17.38;;;13.68;;
46054;SDS011;31788;6.954;-71.872;2023-02-26T16:21:30;17.58;;;13.40;;
46054;SDS011;31788;6.954;-71.872;2023-02-26T16:24:01;20.30;;;14.13;;
46054;SDS011;31788;6.954;-71.872;2023-02-26T16:26:38;18.77;;;13.38;;
46054;SDS011;31788;6.954;-71.872;2023-02-26T16:29:15;21.63;;;13.10;;
46054;SDS011;31788;6.954;-71.872;2023-02-26T16:32:00;21.27;;;14.02;;
46054;SDS011;31788;6.954;-71.872;2023-02-26T16:34:35;16.88;;;13.10;;
46054;SDS011;31788;6.954;-71.872;2023-02-26T16:37:31;19.88;;;13.40;;
46054;SDS011;31788;6.954;-71.872;2023-02-26T16:42:42;16.33;;;12.30;;
46054;SDS011;31788;6.954;-71.872;2023-02-26T16:45:58;18.08;;;12.77;;
46054;SDS011;31788;6.954;-71.872;2023-02-26T16:48:19;16.90;;;12.68;;
46054;SDS011;31788;6.954;-71.872;2023-02-26T16:50:51;20.43;;;13.47;;
46054;SDS011;31788;6.954;-71.872;2023-02-26T16:53:27;18.90;;;12.95;;
46054;SDS011;31788;6.954;-71.872;2023-02-26T16:56:01;17.80;;;13.00;;
46054;SDS011;31788;6.954;-71.872;2023-02-26T16:58:29;17.30;;;11.82;;
46054;SDS011;31788;6.954;-71.872;2023-02-26T17:01:04;15.98;;;11.88;;
46054;SDS011;31788;6.954;-71.872;2023-02-26T17:03:38;16.52;;;12.65;;
46054;SDS011;31788;6.954;-71.872;2023-02-26T17:06:09;16.05;;;12.27;;
46054;SDS011;31788;6.954;-71.872;2023-02-26T17:08:45;14.30;;;11.55;;
46054;SDS011;31788;6.954;-71.872;2023-02-26T17:11:21;20.92;;;12.60;;
46054;SDS011;31788;6.954;-71.872;2023-02-26T17:14:13;46.67;;;15.32;;
46054;SDS011;31788;6.954;-71.872;2023-02-26T17:16:37;56.72;;;13.90;;
46054;SDS011;31788;6.954;-71.872;2023-02-26T17:19:04;39.97;;;13.18;;
46054;SDS011;31788;6.954;-71.872;2023-02-26T17:21:31;35.78;;;13.48;;
46054;SDS011;31788;6.954;-71.872;2023-02-26T17:23:58;34.10;;;12.73;;
46054;SDS011;31788;6.954;-71.872;2023-02-26T17:26:26;34.95;;;13.00;;
46054;SDS011;31788;6.954;-71.872;2023-02-26T17:28:52;24.38;;;12.57;;
46054;SDS011;31788;6.954;-71.872;2023-02-26T17:31:19;25.77;;;12.95;;
46054;SDS011;31788;6.954;-71.872;2023-02-26T17:33:45;27.13;;;13.20;;
46054;SDS011;31788;6.954;-71.872;2023-02-26T17:36:13;19.53;;;11.57;;
46054;SDS011;31788;6.954;-71.872;2023-02-26T17:38:43;21.52;;;10.77;;
46054;SDS011;31788;6.954;-71.872;2023-02-26T17:41:13;19.55;;;11.18;;
46054;SDS011;31788;6.954;-71.872;2023-02-26T17:43:42;17.55;;;11.07;;
46054;SDS011;31788;6.954;-71.872;2023-02-26T17:46:09;19.33;;;10.02;;